Kenneth Carl — WDF8246 — position and weather

sailwx.info

Track history (hours):
 
Tides and Currents Weather Stations Pressure Air Temp Water Temp Dewpoint Dewpoint Depression Visibility Wind Speed Wind Dir Waves Ship Positions

Kenneth Carl

Owner: So. Cal. Ship Services, Inc., San Pedro, CA. More information available from US FCC via Universal Licensing System and Coast Guard Vessel Documentation Center.

Last reported at 2018-Jun-22 01:29 UTC. Time now 2018-Jun-22 01:31 UTC.
Position N 33°44' W 118°16'.

Length 31 m; draft 3 m.

Type: Ship. MMSI: 367492920.

Date/timePositionNaut miles runAvg speedWind from/ knotsBaromVisibWave heightAir tempDewpointWater temp
2018-Jun-22 01:29N 33°44' W 118°16'0 0.0
2018-Jun-22 00:59N 33°44' W 118°16'0 0.0
2018-Jun-22 00:30N 33°44' W 118°16'4 8.1
2018-Jun-22 00:00N 33°41' W 118°13'510.3
2018-Jun-21 23:30N 33°37' W 118°09'2 4.9
2018-Jun-21 23:01N 33°35' W 118°08'0 0.0
2018-Jun-21 22:30N 33°35' W 118°08'0 0.0
2018-Jun-21 22:00N 33°35' W 118°08'0 0.0
2018-Jun-21 21:25N 33°35' W 118°08'0 0.0
2018-Jun-21 20:56N 33°35' W 118°08'2 4.7
2018-Jun-21 20:30N 33°36' W 118°09'510.5
2018-Jun-21 20:01N 33°41' W 118°13'4 8.9
2018-Jun-21 19:31N 33°44' W 118°16'0 0.3
2018-Jun-21 18:58N 33°44' W 118°16'0 0.0
2018-Jun-21 18:28N 33°44' W 118°16'0 0.0
2018-Jun-21 17:58N 33°44' W 118°16'0 0.0
2018-Jun-21 17:28N 33°44' W 118°16'0 0.0
2018-Jun-21 16:58N 33°44' W 118°16'0 0.0
2018-Jun-21 16:28N 33°44' W 118°16'0 0.0
2018-Jun-21 15:58N 33°44' W 118°16'0 0.0
2018-Jun-21 15:28N 33°44' W 118°16'0 0.0
2018-Jun-21 14:58N 33°44' W 118°16'0 0.0
2018-Jun-21 14:28N 33°44' W 118°16'0 0.0
2018-Jun-21 13:58N 33°44' W 118°16'0 0.0
2018-Jun-21 13:28N 33°44' W 118°16'0 0.0
2018-Jun-21 12:58N 33°44' W 118°16'0 0.0
2018-Jun-21 12:28N 33°44' W 118°16'0 0.0
2018-Jun-21 11:58N 33°44' W 118°16'0 0.0
2018-Jun-21 11:25N 33°44' W 118°16'0 0.0
2018-Jun-21 10:58N 33°44' W 118°16'0 0.0
2018-Jun-21 10:28N 33°44' W 118°16'0 0.0
2018-Jun-21 09:55N 33°44' W 118°16'0 0.0
2018-Jun-21 09:25N 33°44' W 118°16'0 0.0
2018-Jun-21 08:52N 33°44' W 118°16'0 0.0
2018-Jun-21 08:19N 33°44' W 118°16'0 0.0
2018-Jun-21 07:58N 33°44' W 118°16'0 0.0
2018-Jun-21 07:25N 33°44' W 118°16'0 0.0
2018-Jun-21 06:58N 33°44' W 118°16'0 0.0
2018-Jun-21 06:28N 33°44' W 118°16'0 0.0
2018-Jun-21 05:58N 33°44' W 118°16'0 0.0
2018-Jun-21 05:28N 33°44' W 118°16'0 0.0
2018-Jun-21 04:58N 33°44' W 118°16'0 0.0
2018-Jun-21 04:28N 33°44' W 118°16'0 0.0
2018-Jun-21 03:58N 33°44' W 118°16'0 0.0
2018-Jun-21 03:28N 33°44' W 118°16'0 0.0
2018-Jun-21 02:58N 33°44' W 118°16'0 0.0
2018-Jun-21 02:28N 33°44' W 118°16'0 0.0
2018-Jun-21 01:58N 33°44' W 118°16'0 0.0
2018-Jun-21 01:28N 33°44' W 118°16'0 0.0
2018-Jun-21 00:58N 33°44' W 118°16'0 0.0
2018-Jun-21 00:28N 33°44' W 118°16'0 0.0
2018-Jun-20 23:58N 33°44' W 118°16'0 0.0
2018-Jun-20 23:31N 33°44' W 118°16'0 0.0
2018-Jun-20 23:00N 33°44' W 118°16'0 0.8
2018-Jun-20 22:30N 33°44' W 118°16'5 9.5
2018-Jun-20 22:00N 33°40' W 118°13'510.5
2018-Jun-20 21:29N 33°36' W 118°09'1 1.7
2018-Jun-20 20:50N 33°35' W 118°08'0 0.2
2018-Jun-20 20:21N 33°35' W 118°08'0 0.0
2018-Jun-20 19:59N 33°35' W 118°08'0 0.5
2018-Jun-20 19:30N 33°35' W 118°08'1 2.9
2018-Jun-20 19:00N 33°34' W 118°07'0 0.0
2018-Jun-20 18:27N 33°34' W 118°07'0 0.0
2018-Jun-20 18:00N 33°34' W 118°07'0 0.0
2018-Jun-20 17:27N 33°34' W 118°07'0 0.0
2018-Jun-20 17:00N 33°34' W 118°07'0 0.1
2018-Jun-20 16:28N 33°34' W 118°07'0 0.0
2018-Jun-20 16:00N 33°34' W 118°07'4 7.8
2018-Jun-20 15:29N 33°37' W 118°09'510.2
2018-Jun-20 15:01N 33°41' W 118°13'4 8.0
2018-Jun-20 14:30N 33°44' W 118°16'0 0.0
2018-Jun-20 14:00N 33°44' W 118°16'0 0.0
2018-Jun-20 13:30N 33°44' W 118°16'0 0.0
2018-Jun-20 13:00N 33°44' W 118°16'0 0.0
2018-Jun-20 12:30N 33°44' W 118°16'0 0.0
2018-Jun-20 12:00N 33°44' W 118°16'0 0.0
2018-Jun-20 11:30N 33°44' W 118°16'0 0.0
2018-Jun-20 11:00N 33°44' W 118°16'0 0.0
2018-Jun-20 10:30N 33°44' W 118°16'0 0.0
2018-Jun-20 10:00N 33°44' W 118°16'0 0.0
2018-Jun-20 09:30N 33°44' W 118°16'0 0.0
2018-Jun-20 09:00N 33°44' W 118°16'0 0.0
2018-Jun-20 08:30N 33°44' W 118°16'0 0.0
2018-Jun-20 08:00N 33°44' W 118°16'0 0.0
2018-Jun-20 07:30N 33°44' W 118°16'0 0.0
2018-Jun-20 07:00N 33°44' W 118°16'0 0.0
2018-Jun-20 06:30N 33°44' W 118°16'0 0.0
2018-Jun-20 06:00N 33°44' W 118°16'0 0.0
2018-Jun-20 05:30N 33°44' W 118°16'0 0.0
2018-Jun-20 05:00N 33°44' W 118°16'0 0.0
2018-Jun-20 04:27N 33°44' W 118°16'0 0.0
2018-Jun-20 04:00N 33°44' W 118°16'0 0.0
2018-Jun-20 03:30N 33°44' W 118°16'0 0.0
2018-Jun-20 03:00N 33°44' W 118°16'0 0.0
2018-Jun-20 02:30N 33°44' W 118°16'0 0.0
2018-Jun-20 02:00N 33°44' W 118°16'0 0.0
2018-Jun-20 01:30N 33°44' W 118°16'0 0.0
2018-Jun-20 01:00N 33°44' W 118°16'0 0.0
2018-Jun-20 00:27N 33°44' W 118°16'0 0.0
2018-Jun-19 23:57N 33°44' W 118°16'0 0.0
2018-Jun-19 23:27N 33°44' W 118°16'0 0.0
2018-Jun-19 23:00N 33°44' W 118°16'0 0.0
2018-Jun-19 22:30N 33°44' W 118°16'0 0.0
2018-Jun-19 22:00N 33°44' W 118°16'0 0.0
2018-Jun-19 21:30N 33°44' W 118°16'0 0.0
2018-Jun-19 21:00N 33°44' W 118°16'0 0.0
2018-Jun-19 20:30N 33°44' W 118°16'0 0.0
2018-Jun-19 20:00N 33°44' W 118°16'0 0.0
2018-Jun-19 19:30N 33°44' W 118°16'0 0.0
2018-Jun-19 19:00N 33°44' W 118°16'0 0.0
2018-Jun-19 18:27N 33°44' W 118°16'0 0.0
2018-Jun-19 18:00N 33°44' W 118°16'0 0.0
2018-Jun-19 17:27N 33°44' W 118°16'0 0.0
2018-Jun-19 17:00N 33°44' W 118°16'0 0.0
2018-Jun-19 16:30N 33°44' W 118°16'0 0.0
2018-Jun-19 16:00N 33°44' W 118°16'0 0.0
2018-Jun-19 15:30N 33°44' W 118°16'0 0.0
2018-Jun-19 15:00N 33°44' W 118°16'0 0.0
2018-Jun-19 14:30N 33°44' W 118°16'0 0.0
2018-Jun-19 14:00N 33°44' W 118°16'0 0.0
2018-Jun-19 13:27N 33°44' W 118°16'0 0.0
2018-Jun-19 13:00N 33°44' W 118°16'0 0.0
2018-Jun-19 12:30N 33°44' W 118°16'0 0.0
2018-Jun-19 12:00N 33°44' W 118°16'0 0.0
2018-Jun-19 11:30N 33°44' W 118°16'0 0.0
2018-Jun-19 11:00N 33°44' W 118°16'0 0.0
2018-Jun-19 10:27N 33°44' W 118°16'0 0.0
2018-Jun-19 10:00N 33°44' W 118°16'0 0.0
2018-Jun-19 09:30N 33°44' W 118°16'0 0.0
2018-Jun-19 09:00N 33°44' W 118°16'0 0.0
2018-Jun-19 08:30N 33°44' W 118°16'0 0.0
2018-Jun-19 08:00N 33°44' W 118°16'0 0.0
2018-Jun-19 07:30N 33°44' W 118°16'0 0.0
2018-Jun-19 07:00N 33°44' W 118°16'0 0.0
2018-Jun-19 06:30N 33°44' W 118°16'0 0.0
2018-Jun-19 06:00N 33°44' W 118°16'0 0.0
2018-Jun-19 05:30N 33°44' W 118°16'0 0.0
2018-Jun-19 05:00N 33°44' W 118°16'0 0.0
2018-Jun-19 04:30N 33°44' W 118°16'0 0.0
2018-Jun-19 04:00N 33°44' W 118°16'0 0.0
2018-Jun-19 03:30N 33°44' W 118°16'0 0.0
2018-Jun-19 03:00N 33°44' W 118°16'0 0.0
2018-Jun-19 02:30N 33°44' W 118°16'0 0.0
2018-Jun-19 01:57N 33°44' W 118°16'0 0.0
2018-Jun-19 01:30N 33°44' W 118°16'0 0.0
2018-Jun-19 01:00N 33°44' W 118°16'0 0.0
2018-Jun-19 00:30N 33°44' W 118°16'0 0.0
2018-Jun-19 00:01N 33°44' W 118°16'0 0.0
2018-Jun-18 23:30N 33°44' W 118°16'0 0.0
2018-Jun-18 23:00N 33°44' W 118°16'1 1.8
2018-Jun-18 22:30N 33°43' W 118°16'510.1
2018-Jun-18 22:00N 33°40' W 118°12'510.5
2018-Jun-18 21:29N 33°35' W 118°08'0 0.6
2018-Jun-18 20:50N 33°35' W 118°08'0 0.3
2018-Jun-18 20:30N 33°35' W 118°08'0 0.0
2018-Jun-18 20:00N 33°35' W 118°08'0 0.2
2018-Jun-18 19:26N 33°35' W 118°08'0 0.0
2018-Jun-18 18:59N 33°35' W 118°08'0 0.0
2018-Jun-18 18:27N 33°35' W 118°08'0 0.0
2018-Jun-18 17:57N 33°35' W 118°08'0 0.0
2018-Jun-18 17:28N 33°35' W 118°08'0 0.0
2018-Jun-18 16:58N 33°35' W 118°08'0 0.8
2018-Jun-18 16:29N 33°35' W 118°08'510.3
2018-Jun-18 16:00N 33°39' W 118°12'510.5
2018-Jun-18 15:30N 33°43' W 118°16'1 2.1
2018-Jun-18 14:59N 33°44' W 118°16'0 0.0
2018-Jun-18 14:29N 33°44' W 118°16'0 0.0
2018-Jun-18 13:56N 33°44' W 118°16'0 0.0
2018-Jun-18 13:29N 33°44' W 118°16'0 0.0
2018-Jun-18 12:59N 33°44' W 118°16'0 0.0
2018-Jun-18 12:29N 33°44' W 118°16'0 0.0
2018-Jun-18 12:00N 33°44' W 118°16'0 0.0
2018-Jun-18 11:24N 33°44' W 118°16'0 0.0
2018-Jun-18 11:00N 33°44' W 118°16'0 0.0
2018-Jun-18 10:30N 33°44' W 118°16'0 0.0
2018-Jun-18 10:00N 33°44' W 118°16'0 0.0
2018-Jun-18 09:30N 33°44' W 118°16'0 0.0
2018-Jun-18 09:00N 33°44' W 118°16'0 0.0
2018-Jun-18 08:30N 33°44' W 118°16'0 0.0
2018-Jun-18 08:00N 33°44' W 118°16'0 0.0
2018-Jun-18 07:30N 33°44' W 118°16'0 0.0
2018-Jun-18 07:00N 33°44' W 118°16'0 0.0
2018-Jun-18 06:30N 33°44' W 118°16'0 0.0
2018-Jun-18 06:00N 33°44' W 118°16'0 0.0
2018-Jun-18 05:30N 33°44' W 118°16'0 0.0
2018-Jun-18 05:00N 33°44' W 118°16'0 0.0
2018-Jun-18 04:30N 33°44' W 118°16'0 0.0
2018-Jun-18 04:00N 33°44' W 118°16'0 0.0
2018-Jun-18 03:30N 33°44' W 118°16'0 0.0
2018-Jun-18 03:00N 33°44' W 118°16'0 0.0
2018-Jun-18 02:30N 33°44' W 118°16'0 0.0
2018-Jun-18 02:00N 33°44' W 118°16'0 0.0
2018-Jun-18 01:30N 33°44' W 118°16'0 0.0
2018-Jun-18 01:00N 33°44' W 118°16'0 0.0
2018-Jun-18 00:30N 33°44' W 118°16'0 0.0
2018-Jun-18 00:00N 33°44' W 118°16'0 0.0
2018-Jun-17 23:30N 33°44' W 118°16'0 0.0
2018-Jun-17 23:00N 33°44' W 118°16'0 0.0
2018-Jun-17 22:30N 33°44' W 118°16'0 0.0
2018-Jun-17 22:00N 33°44' W 118°16'0 0.0
2018-Jun-17 21:30N 33°44' W 118°16'0 0.0
2018-Jun-17 21:00N 33°44' W 118°16'0 0.0
2018-Jun-17 20:27N 33°44' W 118°16'0 0.0
2018-Jun-17 20:00N 33°44' W 118°16'0 0.0
2018-Jun-17 19:30N 33°44' W 118°16'0 0.0
2018-Jun-17 19:00N 33°44' W 118°16'0 0.0
2018-Jun-17 18:30N 33°44' W 118°16'0 0.0
2018-Jun-17 18:00N 33°44' W 118°16'0 0.0
2018-Jun-17 17:30N 33°44' W 118°16'0 0.0
2018-Jun-17 17:00N 33°44' W 118°16'0 0.0
2018-Jun-17 16:30N 33°44' W 118°16'0 0.0
2018-Jun-17 16:00N 33°44' W 118°16'0 0.0
2018-Jun-17 15:27N 33°44' W 118°16'0 0.0
2018-Jun-17 15:00N 33°44' W 118°16'0 0.0
2018-Jun-17 14:30N 33°44' W 118°16'0 0.0
2018-Jun-17 14:00N 33°44' W 118°16'0 0.0
2018-Jun-17 13:30N 33°44' W 118°16'0 0.0
2018-Jun-17 13:00N 33°44' W 118°16'0 0.0
2018-Jun-17 12:30N 33°44' W 118°16'0 0.0
2018-Jun-17 12:00N 33°44' W 118°16'0 0.0
2018-Jun-17 11:30N 33°44' W 118°16'0 0.0
2018-Jun-17 11:00N 33°44' W 118°16'0 0.0
2018-Jun-17 10:30N 33°44' W 118°16'0 0.0
2018-Jun-17 10:00N 33°44' W 118°16'0 0.0
2018-Jun-17 09:30N 33°44' W 118°16'0 0.0
2018-Jun-17 08:57N 33°44' W 118°16'0 0.0
2018-Jun-17 08:30N 33°44' W 118°16'0 0.0
2018-Jun-17 08:00N 33°44' W 118°16'0 0.0
2018-Jun-17 07:30N 33°44' W 118°16'0 0.0
2018-Jun-17 07:00N 33°44' W 118°16'0 0.0
2018-Jun-17 06:30N 33°44' W 118°16'0 0.0
2018-Jun-17 06:00N 33°44' W 118°16'0 0.0
2018-Jun-17 05:30N 33°44' W 118°16'0 0.0
2018-Jun-17 05:00N 33°44' W 118°16'0 0.0
2018-Jun-17 04:30N 33°44' W 118°16'0 0.0
2018-Jun-17 04:00N 33°44' W 118°16'0 0.0
2018-Jun-17 03:30N 33°44' W 118°16'0 0.0
2018-Jun-17 03:00N 33°44' W 118°16'0 0.0
2018-Jun-17 02:30N 33°44' W 118°16'0 0.0
2018-Jun-17 02:00N 33°44' W 118°16'0 0.0
2018-Jun-17 01:30N 33°44' W 118°16'0 0.0
2018-Jun-17 01:00N 33°44' W 118°16'0 0.0
2018-Jun-17 00:30N 33°44' W 118°16'0 0.0
2018-Jun-17 00:00N 33°44' W 118°16'0 0.0
2018-Jun-16 23:27N 33°44' W 118°16'0 0.0
2018-Jun-16 23:00N 33°44' W 118°16'0 0.0
2018-Jun-16 22:30N 33°44' W 118°16'0 0.0
2018-Jun-16 22:00N 33°44' W 118°16'0 0.0
2018-Jun-16 21:30N 33°44' W 118°16'0 0.0
2018-Jun-16 21:00N 33°44' W 118°16'0 0.0
2018-Jun-16 20:30N 33°44' W 118°16'0 0.0
2018-Jun-16 20:00N 33°44' W 118°16'0 0.0
2018-Jun-16 19:30N 33°44' W 118°16'0 0.0
2018-Jun-16 19:00N 33°44' W 118°16'0 0.0
2018-Jun-16 18:30N 33°44' W 118°16'0 0.0
2018-Jun-16 18:00N 33°44' W 118°16'0 0.0
2018-Jun-16 17:30N 33°44' W 118°16'0 0.0
2018-Jun-16 17:00N 33°44' W 118°16'0 0.0
2018-Jun-16 16:30N 33°44' W 118°16'0 0.0
2018-Jun-16 16:00N 33°44' W 118°16'0 0.0
2018-Jun-16 15:27N 33°44' W 118°16'0 0.0
2018-Jun-16 14:57N 33°44' W 118°16'0 0.0
2018-Jun-16 14:30N 33°44' W 118°16'0 0.0
2018-Jun-16 14:00N 33°44' W 118°16'0 0.0
2018-Jun-16 13:30N 33°44' W 118°16'0 0.0
2018-Jun-16 13:00N 33°44' W 118°16'0 0.0
2018-Jun-16 12:30N 33°44' W 118°16'0 0.0
2018-Jun-16 12:00N 33°44' W 118°16'0 0.0
2018-Jun-16 11:30N 33°44' W 118°16'0 0.0
2018-Jun-16 11:00N 33°44' W 118°16'0 0.0
2018-Jun-16 10:30N 33°44' W 118°16'0 0.0
2018-Jun-16 10:00N 33°44' W 118°16'0 0.0
2018-Jun-16 09:30N 33°44' W 118°16'0 0.0
2018-Jun-16 09:00N 33°44' W 118°16'0 0.0
2018-Jun-16 08:30N 33°44' W 118°16'0 0.0
2018-Jun-16 08:00N 33°44' W 118°16'0 0.0
2018-Jun-16 07:30N 33°44' W 118°16'0 0.0
2018-Jun-16 07:00N 33°44' W 118°16'0 0.0
2018-Jun-16 06:30N 33°44' W 118°16'0 0.0
2018-Jun-16 06:00N 33°44' W 118°16'0 0.0
2018-Jun-16 05:30N 33°44' W 118°16'0 0.0
2018-Jun-16 04:57N 33°44' W 118°16'0 0.0
2018-Jun-16 04:30N 33°44' W 118°16'0 0.0
2018-Jun-16 04:00N 33°44' W 118°16'0 0.0
2018-Jun-16 03:30N 33°44' W 118°16'0 0.0
2018-Jun-16 03:00N 33°44' W 118°16'0 0.0
2018-Jun-16 02:30N 33°44' W 118°16'0 0.0
2018-Jun-16 02:00N 33°44' W 118°16'0 0.0
2018-Jun-16 01:27N 33°44' W 118°16'0 0.0
2018-Jun-16 01:00N 33°44' W 118°16'0 0.0
2018-Jun-16 00:30N 33°44' W 118°16'0 0.0
2018-Jun-16 00:00N 33°44' W 118°16'0 0.0
2018-Jun-15 23:30N 33°44' W 118°16'1 2.3
2018-Jun-15 23:00N 33°43' W 118°16'510.1
2018-Jun-15 22:30N 33°39' W 118°12'510.2
2018-Jun-15 22:00N 33°35' W 118°08'2 2.6
2018-Jun-15 21:24N 33°34' W 118°07'1 3.2
2018-Jun-15 21:00N 33°35' W 118°08'0 0.0
2018-Jun-15 20:30N 33°35' W 118°08'0 0.0
2018-Jun-15 19:59N 33°35' W 118°08'0 0.0
2018-Jun-15 19:29N 33°35' W 118°08'0 0.0
2018-Jun-15 18:53N 33°35' W 118°08'0 0.0
2018-Jun-15 18:30N 33°35' W 118°08'0 0.1
2018-Jun-15 17:44N 33°35' W 118°08'0 0.1
2018-Jun-15 17:30N 33°35' W 118°08'0 0.0
2018-Jun-15 16:55N 33°35' W 118°08'4 9.1
2018-Jun-15 16:30N 33°38' W 118°10'510.1
2018-Jun-15 16:00N 33°42' W 118°14'3 6.1
2018-Jun-15 15:30N 33°44' W 118°16'0 0.0
2018-Jun-15 15:00N 33°44' W 118°16'0 0.0
2018-Jun-15 14:30N 33°44' W 118°16'0 0.0
2018-Jun-15 14:00N 33°44' W 118°16'0 0.7
2018-Jun-15 13:30N 33°44' W 118°16'0 0.0
2018-Jun-15 13:00N 33°44' W 118°16'0 0.0
2018-Jun-15 12:30N 33°44' W 118°16'0 0.7
2018-Jun-15 11:58N 33°44' W 118°16'0 0.0
2018-Jun-15 11:28N 33°44' W 118°16'0 0.0
2018-Jun-15 10:58N 33°44' W 118°16'0 0.0
2018-Jun-15 10:28N 33°44' W 118°16'0 0.0
2018-Jun-15 09:58N 33°44' W 118°16'0 0.0
2018-Jun-15 09:28N 33°44' W 118°16'0 0.0
2018-Jun-15 08:58N 33°44' W 118°16'0 0.0
2018-Jun-15 08:28N 33°44' W 118°16'0 0.0
2018-Jun-15 07:58N 33°44' W 118°16'0 0.0
2018-Jun-15 07:25N 33°44' W 118°16'0 0.0
2018-Jun-15 06:58N 33°44' W 118°16'0 0.0
2018-Jun-15 06:25N 33°44' W 118°16'0 0.0
2018-Jun-15 05:58N 33°44' W 118°16'0 0.0
2018-Jun-15 05:28N 33°44' W 118°16'0 0.0
2018-Jun-15 04:58N 33°44' W 118°16'0 0.0
2018-Jun-15 04:28N 33°44' W 118°16'0 0.0
2018-Jun-15 03:58N 33°44' W 118°16'0 0.0
2018-Jun-15 03:28N 33°44' W 118°16'0 0.0
2018-Jun-15 02:58N 33°44' W 118°16'0 0.0
2018-Jun-15 02:28N 33°44' W 118°16'0 0.0
2018-Jun-15 01:58N 33°44' W 118°16'0 0.0
2018-Jun-15 01:28N 33°44' W 118°16'0 0.0
2018-Jun-15 00:58N 33°44' W 118°16'0 0.0
2018-Jun-15 00:28N 33°44' W 118°16'0 0.0
2018-Jun-14 23:58N 33°44' W 118°16'2 5.3
2018-Jun-14 23:30N 33°42' W 118°14'5 9.8
2018-Jun-14 23:00N 33°39' W 118°11'4 8.7
2018-Jun-14 22:31N 33°35' W 118°08'0 0.1
2018-Jun-14 22:00N 33°35' W 118°08'0 0.0
2018-Jun-14 21:29N 33°35' W 118°08'0 0.0
2018-Jun-14 20:55N 33°35' W 118°08'0 0.0
2018-Jun-14 20:28N 33°35' W 118°08'1 2.5
2018-Jun-14 20:01N 33°36' W 118°08'510.5
2018-Jun-14 19:30N 33°40' W 118°12'5 9.7
2018-Jun-14 19:01N 33°44' W 118°16'1 1.0
2018-Jun-14 18:29N 33°44' W 118°16'0 0.0
2018-Jun-14 18:00N 33°44' W 118°16'0 0.0
2018-Jun-14 17:30N 33°44' W 118°16'2 3.1
2018-Jun-14 17:01N 33°43' W 118°15'510.5
2018-Jun-14 16:30N 33°39' W 118°11'5 9.5
2018-Jun-14 16:00N 33°35' W 118°08'0 0.2
2018-Jun-14 15:29N 33°35' W 118°08'0 0.0
2018-Jun-14 15:00N 33°35' W 118°08'0 0.0
2018-Jun-14 14:30N 33°35' W 118°08'0 0.0
2018-Jun-14 13:58N 33°35' W 118°08'0 0.2
2018-Jun-14 13:30N 33°35' W 118°08'510.3
2018-Jun-14 13:01N 33°39' W 118°11'510.7
2018-Jun-14 12:30N 33°43' W 118°16'1 2.1
2018-Jun-14 11:56N 33°44' W 118°16'0 0.0
2018-Jun-14 11:27N 33°44' W 118°16'0 0.0
2018-Jun-14 11:00N 33°44' W 118°16'0 0.0
2018-Jun-14 10:30N 33°44' W 118°16'0 0.0
2018-Jun-14 09:54N 33°44' W 118°16'0 0.0
2018-Jun-14 09:30N 33°44' W 118°16'0 0.0
2018-Jun-14 08:56N 33°44' W 118°16'0 0.0
2018-Jun-14 08:29N 33°44' W 118°16'0 0.0
2018-Jun-14 08:00N 33°44' W 118°16'0 0.0
2018-Jun-14 07:30N 33°44' W 118°16'0 0.0
2018-Jun-14 06:59N 33°44' W 118°16'0 0.0
2018-Jun-14 06:30N 33°44' W 118°16'0 0.0
2018-Jun-14 06:00N 33°44' W 118°16'0 0.0
2018-Jun-14 05:30N 33°44' W 118°16'0 0.0
2018-Jun-14 05:00N 33°44' W 118°16'0 0.0
2018-Jun-14 04:30N 33°44' W 118°16'0 0.0
2018-Jun-14 04:00N 33°44' W 118°16'0 0.0
2018-Jun-14 03:29N 33°44' W 118°16'0 0.0
2018-Jun-14 03:00N 33°44' W 118°16'0 0.0
2018-Jun-14 02:30N 33°44' W 118°16'0 0.0
2018-Jun-14 02:00N 33°44' W 118°16'0 0.0
2018-Jun-14 01:29N 33°44' W 118°16'0 0.0
2018-Jun-14 01:00N 33°44' W 118°16'0 0.0
2018-Jun-14 00:30N 33°44' W 118°16'0 0.0
2018-Jun-14 00:00N 33°44' W 118°16'0 0.0
2018-Jun-13 23:30N 33°44' W 118°16'0 0.0
2018-Jun-13 23:00N 33°44' W 118°16'0 0.0
2018-Jun-13 22:30N 33°44' W 118°16'0 0.0
2018-Jun-13 22:00N 33°44' W 118°16'0 0.0
2018-Jun-13 21:30N 33°44' W 118°16'4 8.1
2018-Jun-13 21:00N 33°41' W 118°13'5 9.5
2018-Jun-13 20:30N 33°37' W 118°09'3 5.6
2018-Jun-13 19:59N 33°35' W 118°08'0 0.1
2018-Jun-13 19:29N 33°35' W 118°08'1 2.7
2018-Jun-13 19:00N 33°34' W 118°07'0 0.1
2018-Jun-13 18:26N 33°34' W 118°07'0 0.0
2018-Jun-13 18:00N 33°34' W 118°07'0 0.0
2018-Jun-13 17:26N 33°34' W 118°07'0 0.0
2018-Jun-13 16:57N 33°34' W 118°07'0 0.0
2018-Jun-13 16:30N 33°34' W 118°07'0 0.2
2018-Jun-13 16:00N 33°34' W 118°07'5 9.8
2018-Jun-13 15:30N 33°38' W 118°11'510.4
2018-Jun-13 15:00N 33°42' W 118°14'3 5.1
2018-Jun-13 14:28N 33°44' W 118°16'0 0.0
2018-Jun-13 13:49N 33°44' W 118°16'0 0.0
2018-Jun-13 13:25N 33°44' W 118°16'0 0.0
2018-Jun-13 12:55N 33°44' W 118°16'0 0.0
2018-Jun-13 12:28N 33°44' W 118°16'0 0.0
2018-Jun-13 11:58N 33°44' W 118°16'0 0.0
2018-Jun-13 11:28N 33°44' W 118°16'0 0.0
2018-Jun-13 10:58N 33°44' W 118°16'0 0.0
2018-Jun-13 10:28N 33°44' W 118°16'0 0.0
2018-Jun-13 09:58N 33°44' W 118°16'0 0.0
2018-Jun-13 09:28N 33°44' W 118°16'0 0.0
2018-Jun-13 08:58N 33°44' W 118°16'0 0.0
2018-Jun-13 08:28N 33°44' W 118°16'0 0.0
2018-Jun-13 07:58N 33°44' W 118°16'0 0.0
2018-Jun-13 07:28N 33°44' W 118°16'0 0.0
2018-Jun-13 06:58N 33°44' W 118°16'0 0.0
2018-Jun-13 06:28N 33°44' W 118°16'0 0.0
2018-Jun-13 05:58N 33°44' W 118°16'0 0.0
2018-Jun-13 05:28N 33°44' W 118°16'0 0.0
2018-Jun-13 04:58N 33°44' W 118°16'0 0.0
2018-Jun-13 04:28N 33°44' W 118°16'0 0.0
2018-Jun-13 03:55N 33°44' W 118°16'0 0.0
2018-Jun-13 03:28N 33°44' W 118°16'0 0.0
2018-Jun-13 02:58N 33°44' W 118°16'0 0.0
2018-Jun-13 02:28N 33°44' W 118°16'0 0.0
2018-Jun-13 01:58N 33°44' W 118°16'0 0.0
2018-Jun-13 01:28N 33°44' W 118°16'0 0.0
2018-Jun-13 00:58N 33°44' W 118°16'0 0.0
2018-Jun-13 00:28N 33°44' W 118°16'0 0.0
2018-Jun-12 23:58N 33°44' W 118°16'1 2.2
2018-Jun-12 23:30N 33°43' W 118°16'510.0
2018-Jun-12 23:00N 33°40' W 118°12'510.2
2018-Jun-12 22:30N 33°35' W 118°08'1 1.1
2018-Jun-12 21:59N 33°35' W 118°08'0 0.0
2018-Jun-12 21:30N 33°35' W 118°08'0 0.0
2018-Jun-12 21:00N 33°35' W 118°08'0 0.0
2018-Jun-12 20:29N 33°35' W 118°08'0 0.0
2018-Jun-12 19:59N 33°35' W 118°08'0 0.0
2018-Jun-12 19:22N 33°35' W 118°08'0 0.0
2018-Jun-12 18:58N 33°35' W 118°08'0 0.0
2018-Jun-12 18:25N 33°35' W 118°08'0 0.0
2018-Jun-12 17:57N 33°35' W 118°08'0 0.0
2018-Jun-12 17:29N 33°35' W 118°08'0 0.3
2018-Jun-12 17:00N 33°35' W 118°08'4 7.9
2018-Jun-12 16:30N 33°38' W 118°10'510.3
2018-Jun-12 16:00N 33°42' W 118°14'3 5.2
2018-Jun-12 15:30N 33°44' W 118°16'0 0.0
2018-Jun-12 15:00N 33°44' W 118°16'0 0.0
2018-Jun-12 14:30N 33°44' W 118°16'0 0.0
2018-Jun-12 14:00N 33°44' W 118°16'0 0.8
2018-Jun-12 13:30N 33°44' W 118°16'0 0.0
2018-Jun-12 13:00N 33°44' W 118°16'0 0.0
2018-Jun-12 12:30N 33°44' W 118°16'0 0.7
2018-Jun-12 11:59N 33°44' W 118°16'0 0.0
2018-Jun-12 11:29N 33°44' W 118°16'0 0.0
2018-Jun-12 10:59N 33°44' W 118°16'0 0.0
2018-Jun-12 10:29N 33°44' W 118°16'0 0.0
2018-Jun-12 09:59N 33°44' W 118°16'0 0.0
2018-Jun-12 09:29N 33°44' W 118°16'0 0.0
2018-Jun-12 08:59N 33°44' W 118°16'0 0.0
2018-Jun-12 08:29N 33°44' W 118°16'0 0.0
2018-Jun-12 07:59N 33°44' W 118°16'0 0.0
2018-Jun-12 07:29N 33°44' W 118°16'0 0.0
2018-Jun-12 06:59N 33°44' W 118°16'0 0.0
2018-Jun-12 06:29N 33°44' W 118°16'0 0.0
2018-Jun-12 05:59N 33°44' W 118°16'0 0.0
2018-Jun-12 05:29N 33°44' W 118°16'0 0.0
2018-Jun-12 04:59N 33°44' W 118°16'0 0.0
2018-Jun-12 04:29N 33°44' W 118°16'0 0.0
2018-Jun-12 03:59N 33°44' W 118°16'0 0.0
2018-Jun-12 03:29N 33°44' W 118°16'0 0.0
2018-Jun-12 02:59N 33°44' W 118°16'0 0.0
2018-Jun-12 02:29N 33°44' W 118°16'0 0.0
2018-Jun-12 01:59N 33°44' W 118°16'0 0.0
2018-Jun-12 01:29N 33°44' W 118°16'  
Track history (hours):
 
Tides and Currents Weather Stations Pressure Air Temp Water Temp Dewpoint Dewpoint Depression Visibility Wind Speed Wind Dir Waves Ship Positions

Kenneth Carl

Owner: So. Cal. Ship Services, Inc., San Pedro, CA. More information available from US FCC via Universal Licensing System and Coast Guard Vessel Documentation Center.

Last reported at 2018-Jun-22 01:29 UTC. Time now 2018-Jun-22 01:31 UTC.
Position N 33°44' W 118°16'.

Length 31 m; draft 3 m.

Type: Ship. MMSI: 367492920.

Date/timePositionNaut miles runAvg speedWind from/ knotsBaromVisibWave heightAir tempDewpointWater temp
2018-Jun-22 01:29N 33°44' W 118°16'0 0.0
2018-Jun-22 00:59N 33°44' W 118°16'0 0.0
2018-Jun-22 00:30N 33°44' W 118°16'4 8.1
2018-Jun-22 00:00N 33°41' W 118°13'510.3
2018-Jun-21 23:30N 33°37' W 118°09'2 4.9
2018-Jun-21 23:01N 33°35' W 118°08'0 0.0
2018-Jun-21 22:30N 33°35' W 118°08'0 0.0
2018-Jun-21 22:00N 33°35' W 118°08'0 0.0
2018-Jun-21 21:25N 33°35' W 118°08'0 0.0
2018-Jun-21 20:56N 33°35' W 118°08'2 4.7
2018-Jun-21 20:30N 33°36' W 118°09'510.5
2018-Jun-21 20:01N 33°41' W 118°13'4 8.9
2018-Jun-21 19:31N 33°44' W 118°16'0 0.3
2018-Jun-21 18:58N 33°44' W 118°16'0 0.0
2018-Jun-21 18:28N 33°44' W 118°16'0 0.0
2018-Jun-21 17:58N 33°44' W 118°16'0 0.0
2018-Jun-21 17:28N 33°44' W 118°16'0 0.0
2018-Jun-21 16:58N 33°44' W 118°16'0 0.0
2018-Jun-21 16:28N 33°44' W 118°16'0 0.0
2018-Jun-21 15:58N 33°44' W 118°16'0 0.0
2018-Jun-21 15:28N 33°44' W 118°16'0 0.0
2018-Jun-21 14:58N 33°44' W 118°16'0 0.0
2018-Jun-21 14:28N 33°44' W 118°16'0 0.0
2018-Jun-21 13:58N 33°44' W 118°16'0 0.0
2018-Jun-21 13:28N 33°44' W 118°16'0 0.0
2018-Jun-21 12:58N 33°44' W 118°16'0 0.0
2018-Jun-21 12:28N 33°44' W 118°16'0 0.0
2018-Jun-21 11:58N 33°44' W 118°16'0 0.0
2018-Jun-21 11:25N 33°44' W 118°16'0 0.0
2018-Jun-21 10:58N 33°44' W 118°16'0 0.0
2018-Jun-21 10:28N 33°44' W 118°16'0 0.0
2018-Jun-21 09:55N 33°44' W 118°16'0 0.0
2018-Jun-21 09:25N 33°44' W 118°16'0 0.0
2018-Jun-21 08:52N 33°44' W 118°16'0 0.0
2018-Jun-21 08:19N 33°44' W 118°16'0 0.0
2018-Jun-21 07:58N 33°44' W 118°16'0 0.0
2018-Jun-21 07:25N 33°44' W 118°16'0 0.0
2018-Jun-21 06:58N 33°44' W 118°16'0 0.0
2018-Jun-21 06:28N 33°44' W 118°16'0 0.0
2018-Jun-21 05:58N 33°44' W 118°16'0 0.0
2018-Jun-21 05:28N 33°44' W 118°16'0 0.0
2018-Jun-21 04:58N 33°44' W 118°16'0 0.0
2018-Jun-21 04:28N 33°44' W 118°16'0 0.0
2018-Jun-21 03:58N 33°44' W 118°16'0 0.0
2018-Jun-21 03:28N 33°44' W 118°16'0 0.0
2018-Jun-21 02:58N 33°44' W 118°16'0 0.0
2018-Jun-21 02:28N 33°44' W 118°16'0 0.0
2018-Jun-21 01:58N 33°44' W 118°16'0 0.0
2018-Jun-21 01:28N 33°44' W 118°16'0 0.0
2018-Jun-21 00:58N 33°44' W 118°16'0 0.0
2018-Jun-21 00:28N 33°44' W 118°16'0 0.0
2018-Jun-20 23:58N 33°44' W 118°16'0 0.0
2018-Jun-20 23:31N 33°44' W 118°16'0 0.0
2018-Jun-20 23:00N 33°44' W 118°16'0 0.8
2018-Jun-20 22:30N 33°44' W 118°16'5 9.5
2018-Jun-20 22:00N 33°40' W 118°13'510.5
2018-Jun-20 21:29N 33°36' W 118°09'1 1.7
2018-Jun-20 20:50N 33°35' W 118°08'0 0.2
2018-Jun-20 20:21N 33°35' W 118°08'0 0.0
2018-Jun-20 19:59N 33°35' W 118°08'0 0.5
2018-Jun-20 19:30N 33°35' W 118°08'1 2.9
2018-Jun-20 19:00N 33°34' W 118°07'0 0.0
2018-Jun-20 18:27N 33°34' W 118°07'0 0.0
2018-Jun-20 18:00N 33°34' W 118°07'0 0.0
2018-Jun-20 17:27N 33°34' W 118°07'0 0.0
2018-Jun-20 17:00N 33°34' W 118°07'0 0.1
2018-Jun-20 16:28N 33°34' W 118°07'0 0.0
2018-Jun-20 16:00N 33°34' W 118°07'4 7.8
2018-Jun-20 15:29N 33°37' W 118°09'510.2
2018-Jun-20 15:01N 33°41' W 118°13'4 8.0
2018-Jun-20 14:30N 33°44' W 118°16'0 0.0
2018-Jun-20 14:00N 33°44' W 118°16'0 0.0
2018-Jun-20 13:30N 33°44' W 118°16'0 0.0
2018-Jun-20 13:00N 33°44' W 118°16'0 0.0
2018-Jun-20 12:30N 33°44' W 118°16'0 0.0
2018-Jun-20 12:00N 33°44' W 118°16'0 0.0
2018-Jun-20 11:30N 33°44' W 118°16'0 0.0
2018-Jun-20 11:00N 33°44' W 118°16'0 0.0
2018-Jun-20 10:30N 33°44' W 118°16'0 0.0
2018-Jun-20 10:00N 33°44' W 118°16'0 0.0
2018-Jun-20 09:30N 33°44' W 118°16'0 0.0
2018-Jun-20 09:00N 33°44' W 118°16'0 0.0
2018-Jun-20 08:30N 33°44' W 118°16'0 0.0
2018-Jun-20 08:00N 33°44' W 118°16'0 0.0
2018-Jun-20 07:30N 33°44' W 118°16'0 0.0
2018-Jun-20 07:00N 33°44' W 118°16'0 0.0
2018-Jun-20 06:30N 33°44' W 118°16'0 0.0
2018-Jun-20 06:00N 33°44' W 118°16'0 0.0
2018-Jun-20 05:30N 33°44' W 118°16'0 0.0
2018-Jun-20 05:00N 33°44' W 118°16'0 0.0
2018-Jun-20 04:27N 33°44' W 118°16'0 0.0
2018-Jun-20 04:00N 33°44' W 118°16'0 0.0
2018-Jun-20 03:30N 33°44' W 118°16'0 0.0
2018-Jun-20 03:00N 33°44' W 118°16'0 0.0
2018-Jun-20 02:30N 33°44' W 118°16'0 0.0
2018-Jun-20 02:00N 33°44' W 118°16'0 0.0
2018-Jun-20 01:30N 33°44' W 118°16'0 0.0
2018-Jun-20 01:00N 33°44' W 118°16'0 0.0
2018-Jun-20 00:27N 33°44' W 118°16'0 0.0
2018-Jun-19 23:57N 33°44' W 118°16'0 0.0
2018-Jun-19 23:27N 33°44' W 118°16'0 0.0
2018-Jun-19 23:00N 33°44' W 118°16'0 0.0
2018-Jun-19 22:30N 33°44' W 118°16'0 0.0
2018-Jun-19 22:00N 33°44' W 118°16'0 0.0
2018-Jun-19 21:30N 33°44' W 118°16'0 0.0
2018-Jun-19 21:00N 33°44' W 118°16'0 0.0
2018-Jun-19 20:30N 33°44' W 118°16'0 0.0
2018-Jun-19 20:00N 33°44' W 118°16'0 0.0
2018-Jun-19 19:30N 33°44' W 118°16'0 0.0
2018-Jun-19 19:00N 33°44' W 118°16'0 0.0
2018-Jun-19 18:27N 33°44' W 118°16'0 0.0
2018-Jun-19 18:00N 33°44' W 118°16'0 0.0
2018-Jun-19 17:27N 33°44' W 118°16'0 0.0
2018-Jun-19 17:00N 33°44' W 118°16'0 0.0
2018-Jun-19 16:30N 33°44' W 118°16'0 0.0
2018-Jun-19 16:00N 33°44' W 118°16'0 0.0
2018-Jun-19 15:30N 33°44' W 118°16'0 0.0
2018-Jun-19 15:00N 33°44' W 118°16'0 0.0
2018-Jun-19 14:30N 33°44' W 118°16'0 0.0
2018-Jun-19 14:00N 33°44' W 118°16'0 0.0
2018-Jun-19 13:27N 33°44' W 118°16'0 0.0
2018-Jun-19 13:00N 33°44' W 118°16'0 0.0
2018-Jun-19 12:30N 33°44' W 118°16'0 0.0
2018-Jun-19 12:00N 33°44' W 118°16'0 0.0
2018-Jun-19 11:30N 33°44' W 118°16'0 0.0
2018-Jun-19 11:00N 33°44' W 118°16'0 0.0
2018-Jun-19 10:27N 33°44' W 118°16'0 0.0
2018-Jun-19 10:00N 33°44' W 118°16'0 0.0
2018-Jun-19 09:30N 33°44' W 118°16'0 0.0
2018-Jun-19 09:00N 33°44' W 118°16'0 0.0
2018-Jun-19 08:30N 33°44' W 118°16'0 0.0
2018-Jun-19 08:00N 33°44' W 118°16'0 0.0
2018-Jun-19 07:30N 33°44' W 118°16'0 0.0
2018-Jun-19 07:00N 33°44' W 118°16'0 0.0
2018-Jun-19 06:30N 33°44' W 118°16'0 0.0
2018-Jun-19 06:00N 33°44' W 118°16'0 0.0
2018-Jun-19 05:30N 33°44' W 118°16'0 0.0
2018-Jun-19 05:00N 33°44' W 118°16'0 0.0
2018-Jun-19 04:30N 33°44' W 118°16'0 0.0
2018-Jun-19 04:00N 33°44' W 118°16'0 0.0
2018-Jun-19 03:30N 33°44' W 118°16'0 0.0
2018-Jun-19 03:00N 33°44' W 118°16'0 0.0
2018-Jun-19 02:30N 33°44' W 118°16'0 0.0
2018-Jun-19 01:57N 33°44' W 118°16'0 0.0
2018-Jun-19 01:30N 33°44' W 118°16'0 0.0
2018-Jun-19 01:00N 33°44' W 118°16'0 0.0
2018-Jun-19 00:30N 33°44' W 118°16'0 0.0
2018-Jun-19 00:01N 33°44' W 118°16'0 0.0
2018-Jun-18 23:30N 33°44' W 118°16'0 0.0
2018-Jun-18 23:00N 33°44' W 118°16'1 1.8
2018-Jun-18 22:30N 33°43' W 118°16'510.1
2018-Jun-18 22:00N 33°40' W 118°12'510.5
2018-Jun-18 21:29N 33°35' W 118°08'0 0.6
2018-Jun-18 20:50N 33°35' W 118°08'0 0.3
2018-Jun-18 20:30N 33°35' W 118°08'0 0.0
2018-Jun-18 20:00N 33°35' W 118°08'0 0.2
2018-Jun-18 19:26N 33°35' W 118°08'0 0.0
2018-Jun-18 18:59N 33°35' W 118°08'0 0.0
2018-Jun-18 18:27N 33°35' W 118°08'0 0.0
2018-Jun-18 17:57N 33°35' W 118°08'0 0.0
2018-Jun-18 17:28N 33°35' W 118°08'0 0.0
2018-Jun-18 16:58N 33°35' W 118°08'0 0.8
2018-Jun-18 16:29N 33°35' W 118°08'510.3
2018-Jun-18 16:00N 33°39' W 118°12'510.5
2018-Jun-18 15:30N 33°43' W 118°16'1 2.1
2018-Jun-18 14:59N 33°44' W 118°16'0 0.0
2018-Jun-18 14:29N 33°44' W 118°16'0 0.0
2018-Jun-18 13:56N 33°44' W 118°16'0 0.0
2018-Jun-18 13:29N 33°44' W 118°16'0 0.0
2018-Jun-18 12:59N 33°44' W 118°16'0 0.0
2018-Jun-18 12:29N 33°44' W 118°16'0 0.0
2018-Jun-18 12:00N 33°44' W 118°16'0 0.0
2018-Jun-18 11:24N 33°44' W 118°16'0 0.0
2018-Jun-18 11:00N 33°44' W 118°16'0 0.0
2018-Jun-18 10:30N 33°44' W 118°16'0 0.0
2018-Jun-18 10:00N 33°44' W 118°16'0 0.0
2018-Jun-18 09:30N 33°44' W 118°16'0 0.0
2018-Jun-18 09:00N 33°44' W 118°16'0 0.0
2018-Jun-18 08:30N 33°44' W 118°16'0 0.0
2018-Jun-18 08:00N 33°44' W 118°16'0 0.0
2018-Jun-18 07:30N 33°44' W 118°16'0 0.0
2018-Jun-18 07:00N 33°44' W 118°16'0 0.0
2018-Jun-18 06:30N 33°44' W 118°16'0 0.0
2018-Jun-18 06:00N 33°44' W 118°16'0 0.0
2018-Jun-18 05:30N 33°44' W 118°16'0 0.0
2018-Jun-18 05:00N 33°44' W 118°16'0 0.0
2018-Jun-18 04:30N 33°44' W 118°16'0 0.0
2018-Jun-18 04:00N 33°44' W 118°16'0 0.0
2018-Jun-18 03:30N 33°44' W 118°16'0 0.0
2018-Jun-18 03:00N 33°44' W 118°16'0 0.0
2018-Jun-18 02:30N 33°44' W 118°16'0 0.0
2018-Jun-18 02:00N 33°44' W 118°16'0 0.0
2018-Jun-18 01:30N 33°44' W 118°16'0 0.0
2018-Jun-18 01:00N 33°44' W 118°16'0 0.0
2018-Jun-18 00:30N 33°44' W 118°16'0 0.0
2018-Jun-18 00:00N 33°44' W 118°16'0 0.0
2018-Jun-17 23:30N 33°44' W 118°16'0 0.0
2018-Jun-17 23:00N 33°44' W 118°16'0 0.0
2018-Jun-17 22:30N 33°44' W 118°16'0 0.0
2018-Jun-17 22:00N 33°44' W 118°16'0 0.0
2018-Jun-17 21:30N 33°44' W 118°16'0 0.0
2018-Jun-17 21:00N 33°44' W 118°16'0 0.0
2018-Jun-17 20:27N 33°44' W 118°16'0 0.0
2018-Jun-17 20:00N 33°44' W 118°16'0 0.0
2018-Jun-17 19:30N 33°44' W 118°16'0 0.0
2018-Jun-17 19:00N 33°44' W 118°16'0 0.0
2018-Jun-17 18:30N 33°44' W 118°16'0 0.0
2018-Jun-17 18:00N 33°44' W 118°16'0 0.0
2018-Jun-17 17:30N 33°44' W 118°16'0 0.0
2018-Jun-17 17:00N 33°44' W 118°16'0 0.0
2018-Jun-17 16:30N 33°44' W 118°16'0 0.0
2018-Jun-17 16:00N 33°44' W 118°16'0 0.0
2018-Jun-17 15:27N 33°44' W 118°16'0 0.0
2018-Jun-17 15:00N 33°44' W 118°16'0 0.0
2018-Jun-17 14:30N 33°44' W 118°16'0 0.0
2018-Jun-17 14:00N 33°44' W 118°16'0 0.0
2018-Jun-17 13:30N 33°44' W 118°16'0 0.0
2018-Jun-17 13:00N 33°44' W 118°16'0 0.0
2018-Jun-17 12:30N 33°44' W 118°16'0 0.0
2018-Jun-17 12:00N 33°44' W 118°16'0 0.0
2018-Jun-17 11:30N 33°44' W 118°16'0 0.0
2018-Jun-17 11:00N 33°44' W 118°16'0 0.0
2018-Jun-17 10:30N 33°44' W 118°16'0 0.0
2018-Jun-17 10:00N 33°44' W 118°16'0 0.0
2018-Jun-17 09:30N 33°44' W 118°16'0 0.0
2018-Jun-17 08:57N 33°44' W 118°16'0 0.0
2018-Jun-17 08:30N 33°44' W 118°16'0 0.0
2018-Jun-17 08:00N 33°44' W 118°16'0 0.0
2018-Jun-17 07:30N 33°44' W 118°16'0 0.0
2018-Jun-17 07:00N 33°44' W 118°16'0 0.0
2018-Jun-17 06:30N 33°44' W 118°16'0 0.0
2018-Jun-17 06:00N 33°44' W 118°16'0 0.0
2018-Jun-17 05:30N 33°44' W 118°16'0 0.0
2018-Jun-17 05:00N 33°44' W 118°16'0 0.0
2018-Jun-17 04:30N 33°44' W 118°16'0 0.0
2018-Jun-17 04:00N 33°44' W 118°16'0 0.0
2018-Jun-17 03:30N 33°44' W 118°16'0 0.0
2018-Jun-17 03:00N 33°44' W 118°16'0 0.0
2018-Jun-17 02:30N 33°44' W 118°16'0 0.0
2018-Jun-17 02:00N 33°44' W 118°16'0 0.0
2018-Jun-17 01:30N 33°44' W 118°16'0 0.0
2018-Jun-17 01:00N 33°44' W 118°16'0 0.0
2018-Jun-17 00:30N 33°44' W 118°16'0 0.0
2018-Jun-17 00:00N 33°44' W 118°16'0 0.0
2018-Jun-16 23:27N 33°44' W 118°16'0 0.0
2018-Jun-16 23:00N 33°44' W 118°16'0 0.0
2018-Jun-16 22:30N 33°44' W 118°16'0 0.0
2018-Jun-16 22:00N 33°44' W 118°16'0 0.0
2018-Jun-16 21:30N 33°44' W 118°16'0 0.0
2018-Jun-16 21:00N 33°44' W 118°16'0 0.0
2018-Jun-16 20:30N 33°44' W 118°16'0 0.0
2018-Jun-16 20:00N 33°44' W 118°16'0 0.0
2018-Jun-16 19:30N 33°44' W 118°16'0 0.0
2018-Jun-16 19:00N 33°44' W 118°16'0 0.0
2018-Jun-16 18:30N 33°44' W 118°16'0 0.0
2018-Jun-16 18:00N 33°44' W 118°16'0 0.0
2018-Jun-16 17:30N 33°44' W 118°16'0 0.0
2018-Jun-16 17:00N 33°44' W 118°16'0 0.0
2018-Jun-16 16:30N 33°44' W 118°16'0 0.0
2018-Jun-16 16:00N 33°44' W 118°16'0 0.0
2018-Jun-16 15:27N 33°44' W 118°16'0 0.0
2018-Jun-16 14:57N 33°44' W 118°16'0 0.0
2018-Jun-16 14:30N 33°44' W 118°16'0 0.0
2018-Jun-16 14:00N 33°44' W 118°16'0 0.0
2018-Jun-16 13:30N 33°44' W 118°16'0 0.0
2018-Jun-16 13:00N 33°44' W 118°16'0 0.0
2018-Jun-16 12:30N 33°44' W 118°16'0 0.0
2018-Jun-16 12:00N 33°44' W 118°16'0 0.0
2018-Jun-16 11:30N 33°44' W 118°16'0 0.0
2018-Jun-16 11:00N 33°44' W 118°16'0 0.0
2018-Jun-16 10:30N 33°44' W 118°16'0 0.0
2018-Jun-16 10:00N 33°44' W 118°16'0 0.0
2018-Jun-16 09:30N 33°44' W 118°16'0 0.0
2018-Jun-16 09:00N 33°44' W 118°16'0 0.0
2018-Jun-16 08:30N 33°44' W 118°16'0 0.0
2018-Jun-16 08:00N 33°44' W 118°16'0 0.0
2018-Jun-16 07:30N 33°44' W 118°16'0 0.0
2018-Jun-16 07:00N 33°44' W 118°16'0 0.0
2018-Jun-16 06:30N 33°44' W 118°16'0 0.0
2018-Jun-16 06:00N 33°44' W 118°16'0 0.0
2018-Jun-16 05:30N 33°44' W 118°16'0 0.0
2018-Jun-16 04:57N 33°44' W 118°16'0 0.0
2018-Jun-16 04:30N 33°44' W 118°16'0 0.0
2018-Jun-16 04:00N 33°44' W 118°16'0 0.0
2018-Jun-16 03:30N 33°44' W 118°16'0 0.0
2018-Jun-16 03:00N 33°44' W 118°16'0 0.0
2018-Jun-16 02:30N 33°44' W 118°16'0 0.0
2018-Jun-16 02:00N 33°44' W 118°16'0 0.0
2018-Jun-16 01:27N 33°44' W 118°16'0 0.0
2018-Jun-16 01:00N 33°44' W 118°16'0 0.0
2018-Jun-16 00:30N 33°44' W 118°16'0 0.0
2018-Jun-16 00:00N 33°44' W 118°16'0 0.0
2018-Jun-15 23:30N 33°44' W 118°16'1 2.3
2018-Jun-15 23:00N 33°43' W 118°16'510.1
2018-Jun-15 22:30N 33°39' W 118°12'510.2
2018-Jun-15 22:00N 33°35' W 118°08'2 2.6
2018-Jun-15 21:24N 33°34' W 118°07'1 3.2
2018-Jun-15 21:00N 33°35' W 118°08'0 0.0
2018-Jun-15 20:30N 33°35' W 118°08'0 0.0
2018-Jun-15 19:59N 33°35' W 118°08'0 0.0
2018-Jun-15 19:29N 33°35' W 118°08'0 0.0
2018-Jun-15 18:53N 33°35' W 118°08'0 0.0
2018-Jun-15 18:30N 33°35' W 118°08'0 0.1
2018-Jun-15 17:44N 33°35' W 118°08'0 0.1
2018-Jun-15 17:30N 33°35' W 118°08'0 0.0
2018-Jun-15 16:55N 33°35' W 118°08'4 9.1
2018-Jun-15 16:30N 33°38' W 118°10'510.1
2018-Jun-15 16:00N 33°42' W 118°14'3 6.1
2018-Jun-15 15:30N 33°44' W 118°16'0 0.0
2018-Jun-15 15:00N 33°44' W 118°16'0 0.0
2018-Jun-15 14:30N 33°44' W 118°16'0 0.0
2018-Jun-15 14:00N 33°44' W 118°16'0 0.7
2018-Jun-15 13:30N 33°44' W 118°16'0 0.0
2018-Jun-15 13:00N 33°44' W 118°16'0 0.0
2018-Jun-15 12:30N 33°44' W 118°16'0 0.7
2018-Jun-15 11:58N 33°44' W 118°16'0 0.0
2018-Jun-15 11:28N 33°44' W 118°16'0 0.0
2018-Jun-15 10:58N 33°44' W 118°16'0 0.0
2018-Jun-15 10:28N 33°44' W 118°16'0 0.0
2018-Jun-15 09:58N 33°44' W 118°16'0 0.0
2018-Jun-15 09:28N 33°44' W 118°16'0 0.0
2018-Jun-15 08:58N 33°44' W 118°16'0 0.0
2018-Jun-15 08:28N 33°44' W 118°16'0 0.0
2018-Jun-15 07:58N 33°44' W 118°16'0 0.0
2018-Jun-15 07:25N 33°44' W 118°16'0 0.0
2018-Jun-15 06:58N 33°44' W 118°16'0 0.0
2018-Jun-15 06:25N 33°44' W 118°16'0 0.0
2018-Jun-15 05:58N 33°44' W 118°16'0 0.0
2018-Jun-15 05:28N 33°44' W 118°16'0 0.0
2018-Jun-15 04:58N 33°44' W 118°16'0 0.0
2018-Jun-15 04:28N 33°44' W 118°16'0 0.0
2018-Jun-15 03:58N 33°44' W 118°16'0 0.0
2018-Jun-15 03:28N 33°44' W 118°16'0 0.0
2018-Jun-15 02:58N 33°44' W 118°16'0 0.0
2018-Jun-15 02:28N 33°44' W 118°16'0 0.0
2018-Jun-15 01:58N 33°44' W 118°16'0 0.0
2018-Jun-15 01:28N 33°44' W 118°16'0 0.0
2018-Jun-15 00:58N 33°44' W 118°16'0 0.0
2018-Jun-15 00:28N 33°44' W 118°16'0 0.0
2018-Jun-14 23:58N 33°44' W 118°16'2 5.3
2018-Jun-14 23:30N 33°42' W 118°14'5 9.8
2018-Jun-14 23:00N 33°39' W 118°11'4 8.7
2018-Jun-14 22:31N 33°35' W 118°08'0 0.1
2018-Jun-14 22:00N 33°35' W 118°08'0 0.0
2018-Jun-14 21:29N 33°35' W 118°08'0 0.0
2018-Jun-14 20:55N 33°35' W 118°08'0 0.0
2018-Jun-14 20:28N 33°35' W 118°08'1 2.5
2018-Jun-14 20:01N 33°36' W 118°08'510.5
2018-Jun-14 19:30N 33°40' W 118°12'5 9.7
2018-Jun-14 19:01N 33°44' W 118°16'1 1.0
2018-Jun-14 18:29N 33°44' W 118°16'0 0.0
2018-Jun-14 18:00N 33°44' W 118°16'0 0.0
2018-Jun-14 17:30N 33°44' W 118°16'2 3.1
2018-Jun-14 17:01N 33°43' W 118°15'510.5
2018-Jun-14 16:30N 33°39' W 118°11'5 9.5
2018-Jun-14 16:00N 33°35' W 118°08'0 0.2
2018-Jun-14 15:29N 33°35' W 118°08'0 0.0
2018-Jun-14 15:00N 33°35' W 118°08'0 0.0
2018-Jun-14 14:30N 33°35' W 118°08'0 0.0
2018-Jun-14 13:58N 33°35' W 118°08'0 0.2
2018-Jun-14 13:30N 33°35' W 118°08'510.3
2018-Jun-14 13:01N 33°39' W 118°11'510.7
2018-Jun-14 12:30N 33°43' W 118°16'1 2.1
2018-Jun-14 11:56N 33°44' W 118°16'0 0.0
2018-Jun-14 11:27N 33°44' W 118°16'0 0.0
2018-Jun-14 11:00N 33°44' W 118°16'0 0.0
2018-Jun-14 10:30N 33°44' W 118°16'0 0.0
2018-Jun-14 09:54N 33°44' W 118°16'0 0.0
2018-Jun-14 09:30N 33°44' W 118°16'0 0.0
2018-Jun-14 08:56N 33°44' W 118°16'0 0.0
2018-Jun-14 08:29N 33°44' W 118°16'0 0.0
2018-Jun-14 08:00N 33°44' W 118°16'0 0.0
2018-Jun-14 07:30N 33°44' W 118°16'0 0.0
2018-Jun-14 06:59N 33°44' W 118°16'0 0.0
2018-Jun-14 06:30N 33°44' W 118°16'0 0.0
2018-Jun-14 06:00N 33°44' W 118°16'0 0.0
2018-Jun-14 05:30N 33°44' W 118°16'0 0.0
2018-Jun-14 05:00N 33°44' W 118°16'0 0.0
2018-Jun-14 04:30N 33°44' W 118°16'0 0.0
2018-Jun-14 04:00N 33°44' W 118°16'0 0.0
2018-Jun-14 03:29N 33°44' W 118°16'0 0.0
2018-Jun-14 03:00N 33°44' W 118°16'0 0.0
2018-Jun-14 02:30N 33°44' W 118°16'0 0.0
2018-Jun-14 02:00N 33°44' W 118°16'0 0.0
2018-Jun-14 01:29N 33°44' W 118°16'0 0.0
2018-Jun-14 01:00N 33°44' W 118°16'0 0.0
2018-Jun-14 00:30N 33°44' W 118°16'0 0.0
2018-Jun-14 00:00N 33°44' W 118°16'0 0.0
2018-Jun-13 23:30N 33°44' W 118°16'0 0.0
2018-Jun-13 23:00N 33°44' W 118°16'0 0.0
2018-Jun-13 22:30N 33°44' W 118°16'0 0.0
2018-Jun-13 22:00N 33°44' W 118°16'0 0.0
2018-Jun-13 21:30N 33°44' W 118°16'4 8.1
2018-Jun-13 21:00N 33°41' W 118°13'5 9.5
2018-Jun-13 20:30N 33°37' W 118°09'3 5.6
2018-Jun-13 19:59N 33°35' W 118°08'0 0.1
2018-Jun-13 19:29N 33°35' W 118°08'1 2.7
2018-Jun-13 19:00N 33°34' W 118°07'0 0.1
2018-Jun-13 18:26N 33°34' W 118°07'0 0.0
2018-Jun-13 18:00N 33°34' W 118°07'0 0.0
2018-Jun-13 17:26N 33°34' W 118°07'0 0.0
2018-Jun-13 16:57N 33°34' W 118°07'0 0.0
2018-Jun-13 16:30N 33°34' W 118°07'0 0.2
2018-Jun-13 16:00N 33°34' W 118°07'5 9.8
2018-Jun-13 15:30N 33°38' W 118°11'510.4
2018-Jun-13 15:00N 33°42' W 118°14'3 5.1
2018-Jun-13 14:28N 33°44' W 118°16'0 0.0
2018-Jun-13 13:49N 33°44' W 118°16'0 0.0
2018-Jun-13 13:25N 33°44' W 118°16'0 0.0
2018-Jun-13 12:55N 33°44' W 118°16'0 0.0
2018-Jun-13 12:28N 33°44' W 118°16'0 0.0
2018-Jun-13 11:58N 33°44' W 118°16'0 0.0
2018-Jun-13 11:28N 33°44' W 118°16'0 0.0
2018-Jun-13 10:58N 33°44' W 118°16'0 0.0
2018-Jun-13 10:28N 33°44' W 118°16'0 0.0
2018-Jun-13 09:58N 33°44' W 118°16'0 0.0
2018-Jun-13 09:28N 33°44' W 118°16'0 0.0
2018-Jun-13 08:58N 33°44' W 118°16'0 0.0
2018-Jun-13 08:28N 33°44' W 118°16'0 0.0
2018-Jun-13 07:58N 33°44' W 118°16'0 0.0
2018-Jun-13 07:28N 33°44' W 118°16'0 0.0
2018-Jun-13 06:58N 33°44' W 118°16'0 0.0
2018-Jun-13 06:28N 33°44' W 118°16'0 0.0
2018-Jun-13 05:58N 33°44' W 118°16'0 0.0
2018-Jun-13 05:28N 33°44' W 118°16'0 0.0
2018-Jun-13 04:58N 33°44' W 118°16'0 0.0
2018-Jun-13 04:28N 33°44' W 118°16'0 0.0
2018-Jun-13 03:55N 33°44' W 118°16'0 0.0
2018-Jun-13 03:28N 33°44' W 118°16'0 0.0
2018-Jun-13 02:58N 33°44' W 118°16'0 0.0
2018-Jun-13 02:28N 33°44' W 118°16'0 0.0
2018-Jun-13 01:58N 33°44' W 118°16'0 0.0
2018-Jun-13 01:28N 33°44' W 118°16'0 0.0
2018-Jun-13 00:58N 33°44' W 118°16'0 0.0
2018-Jun-13 00:28N 33°44' W 118°16'0 0.0
2018-Jun-12 23:58N 33°44' W 118°16'1 2.2
2018-Jun-12 23:30N 33°43' W 118°16'510.0
2018-Jun-12 23:00N 33°40' W 118°12'510.2
2018-Jun-12 22:30N 33°35' W 118°08'1 1.1
2018-Jun-12 21:59N 33°35' W 118°08'0 0.0
2018-Jun-12 21:30N 33°35' W 118°08'0 0.0
2018-Jun-12 21:00N 33°35' W 118°08'0 0.0
2018-Jun-12 20:29N 33°35' W 118°08'0 0.0
2018-Jun-12 19:59N 33°35' W 118°08'0 0.0
2018-Jun-12 19:22N 33°35' W 118°08'0 0.0
2018-Jun-12 18:58N 33°35' W 118°08'0 0.0
2018-Jun-12 18:25N 33°35' W 118°08'0 0.0
2018-Jun-12 17:57N 33°35' W 118°08'0 0.0
2018-Jun-12 17:29N 33°35' W 118°08'0 0.3
2018-Jun-12 17:00N 33°35' W 118°08'4 7.9
2018-Jun-12 16:30N 33°38' W 118°10'510.3
2018-Jun-12 16:00N 33°42' W 118°14'3 5.2
2018-Jun-12 15:30N 33°44' W 118°16'0 0.0
2018-Jun-12 15:00N 33°44' W 118°16'0 0.0
2018-Jun-12 14:30N 33°44' W 118°16'0 0.0
2018-Jun-12 14:00N 33°44' W 118°16'0 0.8
2018-Jun-12 13:30N 33°44' W 118°16'0 0.0
2018-Jun-12 13:00N 33°44' W 118°16'0 0.0
2018-Jun-12 12:30N 33°44' W 118°16'0 0.7
2018-Jun-12 11:59N 33°44' W 118°16'0 0.0
2018-Jun-12 11:29N 33°44' W 118°16'0 0.0
2018-Jun-12 10:59N 33°44' W 118°16'0 0.0
2018-Jun-12 10:29N 33°44' W 118°16'0 0.0
2018-Jun-12 09:59N 33°44' W 118°16'0 0.0
2018-Jun-12 09:29N 33°44' W 118°16'0 0.0
2018-Jun-12 08:59N 33°44' W 118°16'0 0.0
2018-Jun-12 08:29N 33°44' W 118°16'0 0.0
2018-Jun-12 07:59N 33°44' W 118°16'0 0.0
2018-Jun-12 07:29N 33°44' W 118°16'0 0.0
2018-Jun-12 06:59N 33°44' W 118°16'0 0.0
2018-Jun-12 06:29N 33°44' W 118°16'0 0.0
2018-Jun-12 05:59N 33°44' W 118°16'0 0.0
2018-Jun-12 05:29N 33°44' W 118°16'0 0.0
2018-Jun-12 04:59N 33°44' W 118°16'0 0.0
2018-Jun-12 04:29N 33°44' W 118°16'0 0.0
2018-Jun-12 03:59N 33°44' W 118°16'0 0.0
2018-Jun-12 03:29N 33°44' W 118°16'0 0.0
2018-Jun-12 02:59N 33°44' W 118°16'0 0.0
2018-Jun-12 02:29N 33°44' W 118°16'0 0.0
2018-Jun-12 01:59N 33°44' W 118°16'0 0.0
2018-Jun-12 01:29N 33°44' W 118°16'  

Dump ship's entire track history